Wetterstation Vordersexau
Wetterdaten: Juli 2018
Datum Temp. A. Feuchte A. Luftdruck Regen Wind Richtung Taupunkt Windchill Windben
01.07.2018 24,0 C 52 % 1009,3 hPa 0,0 l/m 0,8 km/h W 13,2 C 23,9 C 0,5 km/h
02.07.2018 23,8 C 51 % 1009,6 hPa 0,0 l/m 1,9 km/h N-NW 12,6 C 23,6 C 1,0 km/h
03.07.2018 21,5 C 66 % 1012,7 hPa 0,5 l/m 0,0 km/h N 14,8 C 21,5 C 0,0 km/h
04.07.2018 23,0 C 67 % 1012,4 hPa 1,6 l/m 0,3 km/h O-SO 16,2 C 23,0 C 0,2 km/h
05.07.2018 19,5 C 78 % 1012,4 hPa 2,1 l/m 0,9 km/h W-SW 15,6 C 19,4 C 0,5 km/h
06.07.2018 19,2 C 75 % 1016,3 hPa 14,0 l/m 0,1 km/h W 14,5 C 19,2 C 0,1 km/h
07.07.2018 21,3 C 67 % 1019,0 hPa 0,0 l/m 1,9 km/h O-NO 14,4 C 21,2 C 1,1 km/h
08.07.2018 21,5 C 62 % 1018,3 hPa 0,0 l/m 1,4 km/h O-NO 13,2 C 21,3 C 0,8 km/h
09.07.2018 20,9 C 58 % 1016,6 hPa 0,0 l/m 1,4 km/h O-NO 11,8 C 20,8 C 0,7 km/h
10.07.2018 18,7 C 66 % 1014,2 hPa 0,0 l/m 0,1 km/h NO 12,0 C 18,7 C 0,1 km/h
11.07.2018 17,4 C 63 % 1014,2 hPa 0,0 l/m 1,0 km/h N-NO 10,0 C 17,3 C 0,6 km/h
12.07.2018 18,9 C 63 % 1014,9 hPa 0,0 l/m 2,8 km/h N 11,1 C 18,7 C 1,5 km/h
13.07.2018 21,5 C 58 % 1015,9 hPa 0,0 l/m 1,6 km/h O-NO 12,1 C 21,4 C 0,9 km/h
14.07.2018 22,9 C 57 % 1014,8 hPa 0,0 l/m 1,9 km/h O-SO 13,1 C 22,7 C 1,1 km/h
15.07.2018 22,2 C 66 % 1012,6 hPa 1,6 l/m 2,0 km/h SO 15,3 C 22,2 C 1,1 km/h
16.07.2018 22,6 C 61 % 1010,4 hPa 0,0 l/m 2,3 km/h N-NO 14,0 C 22,4 C 1,3 km/h
17.07.2018 22,5 C 59 % 1012,7 hPa 0,0 l/m 2,6 km/h O-NO 13,7 C 22,3 C 1,5 km/h
18.07.2018 23,0 C 59 % 1013,9 hPa 0,0 l/m 0,3 km/h SO 13,9 C 23,0 C 0,2 km/h
19.07.2018 23,6 C 53 % 1013,0 hPa 0,0 l/m 3,6 km/h O 12,6 C 23,5 C 2,0 km/h
20.07.2018 21,9 C 62 % 1010,6 hPa 1,6 l/m 0,5 km/h O 13,6 C 21,9 C 0,3 km/h
21.07.2018 19,5 C 76 % 1010,1 hPa 7,3 l/m 3,4 km/h W-SW 15,2 C 19,0 C 1,9 km/h
22.07.2018 19,9 C 76 % 1012,0 hPa 0,0 l/m 0,3 km/h O-NO 15,5 C 19,9 C 0,2 km/h
23.07.2018 22,1 C 70 % 1013,8 hPa 0,0 l/m 0,7 km/h O-NO 16,1 C 22,1 C 0,4 km/h
24.07.2018 24,8 C 61 % 1010,9 hPa 0,0 l/m 2,8 km/h O 16,0 C 24,7 C 1,5 km/h
25.07.2018 24,8 C 61 % 1011,3 hPa 1,6 l/m 0,1 km/h O-SO 16,2 C 24,8 C 0,1 km/h
26.07.2018 25,6 C 55 % 1010,7 hPa 0,0 l/m 1,3 km/h NO 14,3 C 25,6 C 0,7 km/h
27.07.2018 26,0 C 52 % 1008,9 hPa 0,0 l/m 0,3 km/h O-NO 14,8 C 26,0 C 0,2 km/h
28.07.2018 23,2 C 64 % 1009,0 hPa 0,0 l/m 9,3 km/h SO 16,0 C 22,4 C 5,2 km/h
29.07.2018 24,5 C 59 % 1011,9 hPa 0,0 l/m 0,4 km/h O-SO 15,0 C 24,5 C 0,2 km/h
30.07.2018 26,4 C 50 % 1012,7 hPa 0,0 l/m 1,9 km/h O-SO 13,9 C 26,4 C 1,0 km/h
31.07.2018 27,1 C 50 % 1013,5 hPa 0,0 l/m 2,0 km/h O 15,2 C 27,1 C 1,1 km/h
Min-Datum 12.07.18 30.07.18 28.07.18 8 Tage 01.07.18 - 12.07.18 12.07.18 01.07.18
Min-Zeit 05:53 16:53 06:53 - 00:53 - 05:53 05:53 00:53
Minimum 10,9 C 21 % 1005,4 hPa - 0,0 km/h - 7,8 C 10,9 C 0,0 km/h
Max-Datum 30.07.18 05.07.18 07.07.18 06.07.18 28.07.18 - 26.07.18 30.07.18 28.07.18
Max-Zeit 16:53 22:53 08:53 02:53 18:53 - 11:53 16:53 18:53
Maximum 35,2 C 83 % 1020,0 hPa 14,0 l/m 35,0 km/h
SO
- 19,0 C 35,2 C 19,4 km/h
SO
Durchschnitt 22,4 C 62 % 1012,9 hPa #30,0 l/m 1,6 km/h O-NO 14,1 C 22,3 C 0,9 km/h

Durchschnitt Minimum Temp.16,0 C
Durchschnitt Maximum Temp.29,2 C
www.sexauwetter.de